createdAt,value
2022-10-06T00:01:49.509Z,102147.34
2022-10-06T00:04:19.015Z,102156.66
2022-10-06T00:06:49.089Z,102164.31
2022-10-06T00:09:18.828Z,102168.78
2022-10-06T00:11:48.560Z,102167.55
2022-10-06T00:14:18.005Z,102174.29
2022-10-06T00:16:47.744Z,102178.41
2022-10-06T00:19:17.483Z,102187.07
2022-10-06T00:21:47.346Z,102183.81
2022-10-06T00:24:16.867Z,102196.52
2022-10-06T00:26:47.263Z,102194.79
2022-10-06T00:29:17.010Z,102208.78
2022-10-06T00:31:47.138Z,102213.16
2022-10-06T00:34:16.898Z,102219.21
2022-10-06T00:36:47.090Z,102225.42
2022-10-06T00:39:16.816Z,102225.81
2022-10-06T00:41:46.859Z,102230.71
2022-10-06T00:44:16.630Z,102229.98
2022-10-06T00:46:54.577Z,102229.98
2022-10-06T00:49:36.155Z,102242.86
2022-10-06T00:52:10.846Z,102251.56
2022-10-06T00:54:41.939Z,102261.85
2022-10-06T00:57:13.024Z,102264.03
2022-10-06T00:59:43.075Z,102278.47
2022-10-06T01:02:18.402Z,102272.05
2022-10-06T01:04:52.995Z,102276.81
2022-10-06T01:07:25.307Z,102281.66
2022-10-06T01:09:57.146Z,102275.97
2022-10-06T01:12:29.671Z,102281.86
2022-10-06T01:14:59.476Z,102282.27
2022-10-06T01:17:44.765Z,102287.46
2022-10-06T01:20:19.429Z,102287.55
2022-10-06T01:23:05.213Z,102293.20
2022-10-06T01:25:35.775Z,102298.02
2022-10-06T01:28:10.667Z,102314.98
2022-10-06T01:30:51.029Z,102311.47
2022-10-06T01:33:23.126Z,102311.47
2022-10-06T01:35:54.449Z,102321.86
2022-10-06T01:38:26.109Z,102323.38
2022-10-06T01:40:57.738Z,102320.47
2022-10-06T01:43:27.562Z,102326.98
2022-10-06T01:45:59.195Z,102333.56
2022-10-06T01:48:29.511Z,102333.78
2022-10-06T01:51:00.651Z,102347.92
2022-10-06T01:53:30.106Z,102347.92
2022-10-06T01:56:02.823Z,102342.67
2022-10-06T01:58:33.087Z,102349.08
2022-10-06T02:01:07.497Z,102350.70
2022-10-06T02:03:39.438Z,102362.88
2022-10-06T02:06:12.272Z,102354.30
2022-10-06T02:08:43.701Z,102360.97
2022-10-06T02:11:13.966Z,102364.02
2022-10-06T02:13:44.441Z,102378.25
2022-10-06T02:16:14.463Z,102378.25
2022-10-06T02:18:45.227Z,102384.33
2022-10-06T02:21:19.720Z,102376.16
2022-10-06T02:23:49.713Z,102380.68
2022-10-06T02:26:19.963Z,102384.33
2022-10-06T02:28:53.072Z,102392.34
2022-10-06T02:31:24.636Z,102392.87
2022-10-06T02:33:54.787Z,102403.87
2022-10-06T02:36:24.568Z,102404.95
2022-10-06T02:38:54.763Z,102409.50
2022-10-06T02:41:25.624Z,102409.50
2022-10-06T02:43:55.891Z,102408.83
2022-10-06T02:46:25.900Z,102416.92
2022-10-06T02:48:56.045Z,102427.83
2022-10-06T02:51:26.157Z,102427.11
2022-10-06T02:53:56.171Z,102427.11
2022-10-06T02:56:27.081Z,102425.70
2022-10-06T02:58:56.847Z,102431.70
2022-10-06T03:01:29.599Z,102431.38
2022-10-06T03:04:03.671Z,102431.38
2022-10-06T03:06:33.557Z,102458.47
2022-10-06T03:09:10.053Z,102462.06
2022-10-06T03:11:45.508Z,102450.95
2022-10-06T03:14:21.595Z,102450.95
2022-10-06T03:16:48.146Z,102473.58
2022-10-06T03:19:19.900Z,102473.58
2022-10-06T03:21:50.061Z,102471.14
2022-10-06T03:24:19.638Z,102496.85
2022-10-06T03:26:51.103Z,102496.85
2022-10-06T03:29:20.997Z,102492.48
2022-10-06T03:31:52.765Z,102491.11
2022-10-06T03:34:22.586Z,102489.94
2022-10-06T03:36:52.015Z,102495.19
2022-10-06T03:39:23.438Z,102501.48
2022-10-06T03:41:53.245Z,102514.14
2022-10-06T03:44:23.267Z,102509.03
2022-10-06T03:46:53.766Z,102512.32
2022-10-06T03:49:23.643Z,102510.44
2022-10-06T03:51:55.404Z,102519.92
2022-10-06T03:54:27.061Z,102519.92
2022-10-06T03:56:57.521Z,102525.22
2022-10-06T03:59:28.967Z,102535.44
2022-10-06T04:02:00.198Z,102543.86
2022-10-06T04:04:31.406Z,102543.86
2022-10-06T04:07:02.936Z,102542.02
2022-10-06T04:09:33.143Z,102556.02
2022-10-06T04:12:03.421Z,102558.28
2022-10-06T04:14:34.881Z,102559.31
2022-10-06T04:17:05.285Z,102561.69
2022-10-06T04:19:36.744Z,102570.58
2022-10-06T04:22:08.834Z,102568.55
2022-10-06T04:24:38.787Z,102578.46
2022-10-06T04:27:25.995Z,102586.34
2022-10-06T04:29:58.440Z,102579.30
2022-10-06T04:32:29.352Z,102583.94
2022-10-06T04:34:58.962Z,102597.09
2022-10-06T04:37:29.255Z,102598.14
2022-10-06T04:39:59.774Z,102599.69
2022-10-06T04:45:04.769Z,102597.98
2022-10-06T04:47:35.200Z,102606.17
2022-10-06T04:50:07.609Z,102610.47
2022-10-06T04:52:37.864Z,102618.14
2022-10-06T04:55:08.457Z,102617.15
2022-10-06T04:57:38.263Z,102620.39
2022-10-06T05:00:23.003Z,102621.59
2022-10-06T05:02:56.455Z,102634.06
2022-10-06T05:05:26.375Z,102636.45
2022-10-06T05:07:57.125Z,102643.08
2022-10-06T05:10:28.393Z,102641.41
2022-10-06T05:12:59.222Z,102650.27
2022-10-06T05:15:29.104Z,102650.78
2022-10-06T05:17:59.523Z,102651.31
2022-10-06T05:20:29.131Z,102656.95
2022-10-06T05:22:59.364Z,102670.28
2022-10-06T05:25:29.187Z,102662.06
2022-10-06T05:27:59.038Z,102662.88
2022-10-06T05:30:28.922Z,102675.82
2022-10-06T05:32:58.842Z,102672.99
2022-10-06T05:35:28.945Z,102680.53
2022-10-06T05:37:59.058Z,102677.72
2022-10-06T05:40:28.957Z,102690.27
2022-10-06T05:42:58.945Z,102694.13
2022-10-06T05:45:28.984Z,102691.77
2022-10-06T05:47:59.026Z,102703.86
2022-10-06T05:50:28.655Z,102711.35
2022-10-06T05:52:59.053Z,102705.25
2022-10-06T05:55:29.056Z,102714.94
2022-10-06T05:57:58.815Z,102721.26
2022-10-06T06:00:28.627Z,102715.77
2022-10-06T06:02:58.567Z,102725.73
2022-10-06T06:05:28.466Z,102731.51
2022-10-06T06:07:58.199Z,102737.20
2022-10-06T06:10:28.076Z,102738.85
2022-10-06T06:12:58.051Z,102744.24
2022-10-06T06:15:47.006Z,102745.78
2022-10-06T06:18:15.773Z,102743.59
2022-10-06T06:20:45.536Z,102753.92
2022-10-06T06:23:15.285Z,102758.80
2022-10-06T06:25:45.032Z,102771.31
2022-10-06T06:28:14.965Z,102774.00
2022-10-06T06:30:45.497Z,102769.59
2022-10-06T06:33:15.384Z,102775.54
2022-10-06T06:35:45.300Z,102774.20
2022-10-06T06:38:15.113Z,102772.83
2022-10-06T06:40:44.645Z,102772.66
2022-10-06T06:43:15.866Z,102776.79
2022-10-06T06:46:04.985Z,102787.36
2022-10-06T06:48:53.947Z,102791.44
2022-10-06T06:51:24.640Z,102788.36
2022-10-06T06:53:55.180Z,102793.56
2022-10-06T06:56:24.824Z,102797.52
2022-10-06T06:58:55.004Z,102803.28
2022-10-06T07:01:25.331Z,102798.69
2022-10-06T07:03:59.313Z,102798.72
2022-10-06T07:06:31.871Z,102799.77
2022-10-06T07:09:03.619Z,102808.85
2022-10-06T07:11:36.088Z,102822.38
2022-10-06T07:14:12.654Z,102822.91
2022-10-06T07:17:02.787Z,102823.05
2022-10-06T07:19:50.233Z,102820.64
2022-10-06T07:22:41.606Z,102826.48
2022-10-06T07:25:26.310Z,102838.64
2022-10-06T07:28:00.364Z,102844.95
2022-10-06T07:30:34.147Z,102843.56
2022-10-06T07:33:05.810Z,102850.59
2022-10-06T07:35:35.833Z,102861.09
2022-10-06T07:38:07.340Z,102861.48
2022-10-06T07:40:46.229Z,102872.44
2022-10-06T07:43:11.871Z,102874.97
2022-10-06T07:45:46.967Z,102880.45
2022-10-06T07:48:37.983Z,102888.53
2022-10-06T07:51:16.413Z,102889.38
2022-10-06T07:53:48.159Z,102897.92
2022-10-06T07:56:21.233Z,102906.95
2022-10-06T07:58:52.406Z,102902.95
2022-10-06T08:01:22.263Z,102911.14
2022-10-06T08:03:52.022Z,102911.70
2022-10-06T08:08:53.135Z,102911.48
2022-10-06T08:11:23.183Z,102916.04
2022-10-06T08:13:53.141Z,102909.65
2022-10-06T08:16:27.248Z,102913.05
2022-10-06T08:18:58.210Z,102914.42
2022-10-06T08:21:31.211Z,102913.19
2022-10-06T08:24:02.041Z,102917.52
2022-10-06T08:26:33.200Z,102920.91
2022-10-06T08:29:03.747Z,102921.95
2022-10-06T08:31:33.912Z,102926.50
2022-10-06T08:34:06.656Z,102927.92
2022-10-06T08:36:35.783Z,102925.61
2022-10-06T08:39:07.105Z,102922.91
2022-10-06T08:41:50.089Z,102937.96
2022-10-06T08:44:30.226Z,102937.80
2022-10-06T08:47:03.718Z,102942.59
2022-10-06T08:49:39.570Z,102945.80
2022-10-06T08:52:21.224Z,102948.86
2022-10-06T08:55:06.089Z,102949.16
2022-10-06T08:57:56.902Z,102959.89
2022-10-06T09:00:28.397Z,102972.20
2022-10-06T09:02:58.133Z,102945.13
2022-10-06T09:05:30.599Z,102945.13
2022-10-06T09:08:25.948Z,102967.39
2022-10-06T09:11:22.938Z,102965.52
2022-10-06T09:13:56.463Z,102972.77
2022-10-06T09:16:31.739Z,102975.09
2022-10-06T09:19:08.708Z,102981.36
2022-10-06T09:21:39.366Z,102985.69
2022-10-06T09:24:19.542Z,102992.98
2022-10-06T09:26:52.040Z,102995.58
2022-10-06T09:29:21.837Z,102993.63
2022-10-06T09:31:51.679Z,102997.09
2022-10-06T09:34:49.997Z,103003.81
2022-10-06T09:37:20.307Z,103003.85
2022-10-06T09:39:52.101Z,103003.99
2022-10-06T09:42:25.032Z,103003.99
2022-10-06T09:45:04.896Z,103004.28
2022-10-06T09:47:39.198Z,103002.34
2022-10-06T09:50:23.504Z,103008.16
2022-10-06T09:53:03.543Z,103005.59
2022-10-06T09:55:38.886Z,103015.84
2022-10-06T09:58:33.655Z,103014.80
2022-10-06T10:01:12.086Z,103011.16
2022-10-06T10:04:15.547Z,103011.48
2022-10-06T10:06:27.473Z,103003.28
2022-10-06T10:09:22.416Z,103010.89
2022-10-06T10:12:25.024Z,103010.11
2022-10-06T10:15:12.689Z,103006.25
2022-10-06T10:17:50.871Z,103013.42
2022-10-06T10:20:38.098Z,103020.78
2022-10-06T10:23:30.928Z,103014.20
2022-10-06T10:29:09.006Z,103012.67
2022-10-06T10:32:04.063Z,103023.35
2022-10-06T10:34:54.690Z,103020.28
2022-10-06T10:37:33.168Z,103020.70
2022-10-06T10:40:14.958Z,103021.59
2022-10-06T10:42:50.493Z,103016.67
2022-10-06T10:45:26.370Z,103021.70
2022-10-06T10:47:58.363Z,103019.37
2022-10-06T10:50:36.793Z,103028.03
2022-10-06T10:53:09.652Z,103027.35
2022-10-06T10:55:42.523Z,103022.09
2022-10-06T10:58:24.988Z,103017.34
2022-10-06T11:00:57.863Z,103022.91
2022-10-06T11:03:27.700Z,103028.17
2022-10-06T11:06:08.520Z,103031.18
2022-10-06T11:08:58.321Z,103021.19
2022-10-06T11:11:54.130Z,103021.19
2022-10-06T11:14:30.254Z,103031.39
2022-10-06T11:17:25.394Z,103039.25
2022-10-06T11:20:22.206Z,103043.55
2022-10-06T11:23:12.917Z,103044.16
2022-10-06T11:25:51.291Z,103044.16
2022-10-06T11:28:33.379Z,103037.34
2022-10-06T11:31:20.189Z,103037.98
2022-10-06T11:33:55.617Z,103036.48
2022-10-06T11:36:58.181Z,103030.97
2022-10-06T11:39:46.228Z,103032.34
2022-10-06T11:42:25.796Z,103036.49
2022-10-06T11:45:05.027Z,103026.89
2022-10-06T11:47:41.547Z,103041.91
2022-10-06T11:50:33.551Z,103002.75
2022-10-06T11:53:03.805Z,103027.84
2022-10-06T11:55:33.756Z,103035.20
2022-10-06T12:00:46.958Z,103029.27
2022-10-06T12:03:34.894Z,103026.74
2022-10-06T12:06:04.657Z,103026.74
2022-10-06T12:08:41.994Z,103032.48
2022-10-06T12:11:40.180Z,103024.81
2022-10-06T12:15:31.952Z,103023.39
2022-10-06T12:19:30.193Z,103021.98
2022-10-06T12:22:23.725Z,103013.47
2022-10-06T12:25:08.108Z,103019.91
2022-10-06T12:27:58.815Z,103017.36
2022-10-06T12:31:04.391Z,103017.09
2022-10-06T12:33:41.888Z,103013.89
2022-10-06T12:36:32.643Z,103018.62
2022-10-06T12:39:05.539Z,102994.73
2022-10-06T12:42:03.098Z,102994.73
2022-10-06T12:44:48.636Z,103011.14
2022-10-06T12:47:36.084Z,103008.69
2022-10-06T12:53:03.249Z,103011.39
2022-10-06T12:55:56.800Z,103014.05
2022-10-06T12:58:32.561Z,103007.41
2022-10-06T13:01:13.651Z,103006.37
2022-10-06T13:03:46.488Z,103002.05
2022-10-06T13:06:19.768Z,103003.34
2022-10-06T13:09:05.016Z,102998.65
2022-10-06T13:11:34.662Z,103007.53
2022-10-06T13:14:13.455Z,103002.21
2022-10-06T13:16:46.091Z,102991.03
2022-10-06T13:19:18.910Z,102997.02
2022-10-06T13:21:48.793Z,103001.08
2022-10-06T13:24:24.048Z,102995.64
2022-10-06T13:26:53.935Z,103001.17
2022-10-06T13:29:26.386Z,102996.48
2022-10-06T13:31:56.699Z,102995.25
2022-10-06T13:34:39.508Z,102992.14
2022-10-06T13:39:41.557Z,102993.62
2022-10-06T13:42:16.389Z,102998.88
2022-10-06T13:44:49.421Z,103002.27
2022-10-06T13:47:20.652Z,102997.05
2022-10-06T13:49:57.310Z,102996.21
2022-10-06T13:52:38.732Z,102997.78
2022-10-06T13:55:23.987Z,102993.97
2022-10-06T13:58:04.872Z,102996.92
2022-10-06T14:00:54.960Z,102993.20
2022-10-06T14:03:36.992Z,102990.12
2022-10-06T14:06:09.821Z,102995.09
2022-10-06T14:08:40.178Z,102999.04
2022-10-06T14:11:11.240Z,102996.64
2022-10-06T14:13:58.980Z,102992.27
2022-10-06T14:16:30.174Z,102997.37
2022-10-06T14:19:02.782Z,102993.75
2022-10-06T14:21:41.788Z,102990.03
2022-10-06T14:24:20.606Z,102992.14
2022-10-06T14:26:51.096Z,102992.98
2022-10-06T14:29:21.272Z,102994.10
2022-10-06T14:31:51.366Z,102995.91
2022-10-06T14:34:22.707Z,102995.98
2022-10-06T14:36:54.550Z,102989.72
2022-10-06T14:39:24.287Z,102993.13
2022-10-06T14:41:54.061Z,102989.94
2022-10-06T14:44:23.795Z,102992.05
2022-10-06T14:46:54.107Z,102995.70
2022-10-06T14:49:25.301Z,102987.91
2022-10-06T14:51:56.404Z,102987.91
2022-10-06T14:54:26.139Z,102982.32
2022-10-06T14:56:55.930Z,102991.69
2022-10-06T14:59:26.444Z,102990.97
2022-10-06T15:01:56.166Z,102987.07
2022-10-06T15:04:27.671Z,102992.00
2022-10-06T15:07:15.014Z,102991.89
2022-10-06T15:09:45.057Z,102987.61
2022-10-06T15:12:14.785Z,102984.67
2022-10-06T15:14:44.545Z,102983.32
2022-10-06T15:17:14.267Z,102981.45
2022-10-06T15:19:44.067Z,102979.13
2022-10-06T15:22:14.161Z,102977.09
2022-10-06T15:24:45.923Z,102979.58
2022-10-06T15:27:33.268Z,102970.72
2022-10-06T15:30:03.053Z,102971.27
2022-10-06T15:32:32.972Z,102962.58
2022-10-06T15:35:02.995Z,102960.75
2022-10-06T15:37:32.470Z,102962.39
2022-10-06T15:40:04.147Z,102967.67
2022-10-06T15:42:34.205Z,102956.58
2022-10-06T15:45:07.509Z,102955.94
2022-10-06T15:47:35.893Z,102954.46
2022-10-06T15:50:07.358Z,102958.15
2022-10-06T15:52:37.091Z,102956.25
2022-10-06T15:55:10.437Z,102958.22
2022-10-06T15:57:40.220Z,102959.77
2022-10-06T16:00:10.643Z,102961.28
2022-10-06T16:02:43.400Z,102960.03
2022-10-06T16:05:14.792Z,102956.41
2022-10-06T16:07:44.614Z,102962.50
2022-10-06T16:10:16.800Z,102959.81
2022-10-06T16:12:47.960Z,102959.02
2022-10-06T16:15:17.709Z,102957.60
2022-10-06T16:17:47.728Z,102967.09
2022-10-06T16:20:18.966Z,102964.93
2022-10-06T16:22:48.747Z,102963.50
2022-10-06T16:25:18.189Z,102965.17
2022-10-06T16:27:47.953Z,102959.79
2022-10-06T16:30:19.126Z,102960.81
2022-10-06T16:32:48.884Z,102959.36
2022-10-06T16:35:18.699Z,102957.45
2022-10-06T16:37:49.818Z,102960.52
2022-10-06T16:40:19.292Z,102963.94
2022-10-06T16:42:48.757Z,102966.03
2022-10-06T16:45:18.559Z,102971.64
2022-10-06T16:47:48.251Z,102970.05
2022-10-06T16:50:18.448Z,102967.97
2022-10-06T16:52:48.251Z,102972.31
2022-10-06T16:55:18.300Z,102970.57
2022-10-06T16:57:47.732Z,102975.36
2022-10-06T17:00:18.477Z,102983.69
2022-10-06T17:02:48.192Z,102987.09
2022-10-06T17:05:18.004Z,102982.63
2022-10-06T17:07:47.747Z,102982.30
2022-10-06T17:10:20.896Z,102974.77
2022-10-06T17:12:49.671Z,102977.49
2022-10-06T17:15:19.548Z,102975.65
2022-10-06T17:17:49.596Z,102980.04
2022-10-06T17:20:19.081Z,102983.45
2022-10-06T17:22:50.171Z,102985.30
2022-10-06T17:25:19.918Z,102985.63
2022-10-06T17:27:49.658Z,102982.91
2022-10-06T17:30:19.384Z,102983.45
2022-10-06T17:32:49.152Z,102987.77
2022-10-06T17:35:19.759Z,102982.92
2022-10-06T17:37:50.173Z,102986.70
2022-10-06T17:40:20.594Z,102985.39
2022-10-06T17:42:50.315Z,102984.15
2022-10-06T17:45:21.357Z,102982.44
2022-10-06T17:47:51.698Z,102986.70
2022-10-06T17:50:22.546Z,102981.69
2022-10-06T17:52:52.296Z,102985.61
2022-10-06T17:55:22.498Z,102979.64
2022-10-06T17:57:52.404Z,102976.47
2022-10-06T18:00:22.352Z,102984.16
2022-10-06T18:02:55.313Z,102983.50
2022-10-06T18:05:27.494Z,102987.65
2022-10-06T18:07:58.478Z,102982.30
2022-10-06T18:10:46.009Z,102985.39
2022-10-06T18:13:15.866Z,102991.43
2022-10-06T18:15:45.958Z,102984.28
2022-10-06T18:18:15.770Z,102984.28
2022-10-06T18:20:46.787Z,102984.41
2022-10-06T18:23:16.947Z,102979.13
2022-10-06T18:25:46.696Z,102983.66
2022-10-06T18:28:16.182Z,102983.66
2022-10-06T18:30:51.297Z,102979.54
2022-10-06T18:36:15.006Z,102965.68
2022-10-06T18:38:31.183Z,102965.68
2022-10-06T18:41:03.669Z,102968.27
2022-10-06T18:43:33.626Z,102971.20
2022-10-06T18:46:23.445Z,102964.34
2022-10-06T18:48:56.134Z,102962.98
2022-10-06T18:51:36.908Z,102963.49
2022-10-06T18:54:13.387Z,102962.30
2022-10-06T18:56:46.313Z,102968.99
2022-10-06T18:59:16.563Z,102961.27
2022-10-06T19:01:49.037Z,102961.63
2022-10-06T19:04:21.060Z,102959.73
2022-10-06T19:06:54.090Z,102959.91
2022-10-06T19:09:26.252Z,102953.91
2022-10-06T19:11:58.210Z,102954.77
2022-10-06T19:14:34.281Z,102960.07
2022-10-06T19:17:10.607Z,102957.66
2022-10-06T19:19:40.620Z,102967.92
2022-10-06T19:22:14.171Z,102963.80
2022-10-06T19:24:47.208Z,102968.24
2022-10-06T19:27:20.707Z,102965.05
2022-10-06T19:29:56.795Z,102970.64
2022-10-06T19:32:31.340Z,102970.45
2022-10-06T19:35:01.130Z,102970.97
2022-10-06T19:37:31.930Z,102967.20
2022-10-06T19:40:01.978Z,102968.24
2022-10-06T19:42:50.836Z,102966.66
2022-10-06T19:45:20.854Z,102971.29
2022-10-06T19:47:51.357Z,102966.84
2022-10-06T19:50:21.349Z,102966.28
2022-10-06T19:52:51.599Z,102962.20
2022-10-06T19:55:22.799Z,102968.33
2022-10-06T19:57:52.884Z,102966.59
2022-10-06T20:00:23.213Z,102967.83
2022-10-06T20:02:52.949Z,102966.05
2022-10-06T20:05:22.770Z,102964.98
2022-10-06T20:07:52.583Z,102970.84
2022-10-06T20:10:22.340Z,102964.52
2022-10-06T20:12:52.124Z,102960.61
2022-10-06T20:15:22.533Z,102961.91
2022-10-06T20:17:52.286Z,102968.28
2022-10-06T20:20:22.040Z,102968.41
2022-10-06T20:22:53.868Z,102966.32
2022-10-06T20:25:23.509Z,102963.80
2022-10-06T20:27:53.277Z,102963.45
2022-10-06T20:30:23.240Z,102958.52
2022-10-06T20:32:53.461Z,102957.47
2022-10-06T20:35:23.214Z,102957.47
2022-10-06T20:37:53.039Z,102951.65
2022-10-06T20:40:42.488Z,102946.34
2022-10-06T20:43:12.289Z,102953.11
2022-10-06T20:45:42.098Z,102956.16
2022-10-06T20:48:14.245Z,102950.98
2022-10-06T20:50:44.515Z,102955.41
2022-10-06T20:53:14.762Z,102954.56
2022-10-06T20:55:52.346Z,102956.23
2022-10-06T20:58:22.100Z,102950.81
2022-10-06T21:00:51.994Z,102948.54
2022-10-06T21:03:22.099Z,102953.19
2022-10-06T21:05:52.538Z,102943.25
2022-10-06T21:08:23.033Z,102952.47
2022-10-06T21:11:03.215Z,102951.78
2022-10-06T21:13:32.713Z,102950.97
2022-10-06T21:16:03.029Z,102941.23
2022-10-06T21:18:33.662Z,102940.89
2022-10-06T21:21:07.194Z,102943.92
2022-10-06T21:23:42.207Z,102934.52
2022-10-06T21:26:15.564Z,102934.52
2022-10-06T21:28:45.843Z,102934.63
2022-10-06T21:31:18.146Z,102930.59
2022-10-06T21:33:50.253Z,102940.50
2022-10-06T21:36:24.877Z,102931.22
2022-10-06T21:38:59.373Z,102932.63
2022-10-06T21:41:32.308Z,102928.56
2022-10-06T21:44:04.668Z,102928.44
2022-10-06T21:46:39.404Z,102921.70
2022-10-06T21:49:11.877Z,102918.06
2022-10-06T21:51:43.615Z,102913.45
2022-10-06T21:54:15.167Z,102913.45
2022-10-06T21:56:45.151Z,102912.42
2022-10-06T21:59:15.058Z,102910.50
2022-10-06T22:01:46.635Z,102908.02
2022-10-06T22:04:17.092Z,102906.35
2022-10-06T22:06:48.860Z,102902.98
2022-10-06T22:09:21.230Z,102899.47
2022-10-06T22:11:51.214Z,102895.13
2022-10-06T22:14:21.069Z,102891.52
2022-10-06T22:16:51.106Z,102895.02
2022-10-06T22:19:21.216Z,102890.72
2022-10-06T22:21:51.023Z,102890.04
2022-10-06T22:24:22.498Z,102887.86
2022-10-06T22:26:52.223Z,102885.20
2022-10-06T22:29:22.328Z,102883.02
2022-10-06T22:31:52.153Z,102883.02
2022-10-06T22:34:21.888Z,102879.61
2022-10-06T22:36:51.649Z,102879.48
2022-10-06T22:39:21.373Z,102884.16
2022-10-06T22:41:51.119Z,102877.61
2022-10-06T22:44:20.552Z,102873.36
2022-10-06T22:46:50.338Z,102872.77
2022-10-06T22:49:19.926Z,102874.32
2022-10-06T22:51:49.374Z,102868.44
2022-10-06T22:54:22.102Z,102864.52
2022-10-06T22:56:51.842Z,102867.98
2022-10-06T22:59:21.576Z,102854.34
2022-10-06T23:01:53.260Z,102852.95
2022-10-06T23:04:23.296Z,102852.95
2022-10-06T23:06:52.796Z,102852.73
2022-10-06T23:09:22.516Z,102846.59
2022-10-06T23:11:52.349Z,102850.16
2022-10-06T23:14:21.918Z,102844.83
2022-10-06T23:16:51.751Z,102846.09
2022-10-06T23:19:21.608Z,102843.20
2022-10-06T23:21:51.401Z,102843.20
2022-10-06T23:24:21.455Z,102837.25
2022-10-06T23:26:51.193Z,102844.25
2022-10-06T23:29:21.308Z,102839.00
2022-10-06T23:31:51.210Z,102839.68
2022-10-06T23:34:20.838Z,102832.36
2022-10-06T23:36:50.575Z,102835.19
2022-10-06T23:39:20.315Z,102830.42
2022-10-06T23:41:50.414Z,102828.98
2022-10-06T23:44:19.941Z,102826.24
2022-10-06T23:46:49.754Z,102832.91
2022-10-06T23:49:19.846Z,102824.94
2022-10-06T23:51:49.607Z,102830.54
2022-10-06T23:54:19.416Z,102826.47
2022-10-06T23:56:50.505Z,102821.64
2022-10-06T23:59:21.073Z,102826.84
